Historyczne dane pomiarowe

Dodano dane terminowe – wersja testowa.

Dane z okresu 1951-2019

Wersja bazy: 1.34 [2019-03-16, lista zmian], aktualizacja planowana na 2019-04-15

Dane meteo z obszaru Polski uzyskane na podstawie danych udostępnionych przez Instytut Meteorologii i Gospodarki Wodnej – Państwowy Instytut Badawczy.

 

Wybierz Datę:    

       

TemperaturaWilgotnośćWiatrCiśnienieOpadyŚniegCzas trwania zjawisk
 Stacja t tx tn tng RH VA  wxwx mslp ppp RRR   cm mm wxwxwxwxwxwxwx
2005-08-13 16.1 22.9 9.9 6.1-- 5.7 3.3---- 7.3------------
2005-08-14 15.8 19.7 12.7 12.0-- 8.0 2.7---- 0.0------------
2005-08-15 18.1 22.6 13.5 10.8-- 4.3 1.3---- 0.0------------
2005-08-16 18.2 22.8 13.9 10.8-- 5.0 2.0---- 0.0------------
2005-08-17 20.9 26.8 16.5 14.0-- 3.0 1.0---- 0.0------------
2005-08-18 19.8 26.0 14.5 12.0-- 0.3 3.0---- 0.0------------
2005-08-19 20.4 27.0 14.7 10.9-- 0.0 3.0---- 0.0------------
2005-08-20 20.0 27.2 14.0 10.1-- 0.0 3.0---- 0.0------------
2005-08-21 20.1 27.6 13.7 8.7-- 0.3 2.7---- 0.0------------
2005-08-22 20.1 27.2 14.1 9.0-- 2.3 3.0---- 0.0------------
2005-08-23 20.5 27.0 15.9 12.3-- 7.3 2.0---- 0.0------------
2005-08-24 20.7 27.3 15.9 13.3-- 5.0 2.3---- 0.0------------
2005-08-25 20.5 27.4 15.2 11.0-- 3.0 1.3---- 0.1------------
2005-08-26 19.5 23.2 17.7 13.8-- 5.3 4.3---- 0.0------------
2005-08-27 16.3 22.6 10.3 5.6-- 5.3 1.3---- 0.0------------
2005-08-28 18.6 25.9 13.2 7.6-- 3.0 2.7---- 0.0------------
2005-08-29 19.8 26.8 13.9 9.1-- 0.0 1.3---- 0.0------------
2005-08-30 21.6 29.3 13.9 9.3-- 0.0 3.0---- 0.0------------
2005-08-31 18.0 24.5 13.2 10.0-- 0.3 1.7---- 0.0------------
2005-09-01 17.6 24.9 12.1 6.3-- 0.0 2.3---- 0.0------------
2005-09-02 17.2 24.7 10.8 4.9-- 1.0 1.3---- 0.0------------
2005-09-03 17.5 24.6 11.7 6.5-- 1.3 1.0---- 0.0------------
2005-09-04 18.6 26.4 12.7 7.7-- 1.7 1.3---- 0.0------------
2005-09-05 18.8 26.7 12.3 7.0-- 1.7 1.0---- 0.0------------
2005-09-06 19.1 27.9 12.4 7.4-- 2.3 1.3---- 0.0------------
2005-09-07 19.2 27.4 12.8 7.1-- 0.0 2.0---- 0.0------------
2005-09-08 21.0 29.2 14.7 10.6-- 0.3 2.0---- 0.0------------
2005-09-09 21.6 29.9 15.4 10.0-- 1.0 2.0---- 0.0------------
2005-09-10 21.6 28.4 16.5 11.7-- 5.7 3.0---- 0.4------------
2005-09-11 22.1 27.3 19.3 16.1-- 8.0 2.3---- 0.0------------
81.4 ms

 

Źródłem pochodzenia danych jest Instytut Meteorologii i Gospodarki Wodnej – Państwowy Instytut Badawczy. Dane Instytutu Meteorologii i Gospodarki Wodnej – Państwowego Instytutu Badawczego zostały przetworzone.

Dane źródłowe można odnaleźć na stronie https://dane.imgw.pl